sensor_id;sensor_type;location;lat;lon;timestamp;P1;durP1;ratioP1;P2;durP2;ratioP2
68910;SDS011;55953;51.650;-0.522;2022-12-18T00:01:45;56.70;;;19.60;;
68910;SDS011;55953;51.650;-0.522;2022-12-18T00:04:19;56.60;;;19.50;;
68910;SDS011;55953;51.650;-0.522;2022-12-18T00:06:51;64.00;;;20.20;;
68910;SDS011;55953;51.650;-0.522;2022-12-18T00:09:19;56.90;;;19.00;;
68910;SDS011;55953;51.650;-0.522;2022-12-18T00:11:51;56.60;;;20.60;;
68910;SDS011;55953;51.650;-0.522;2022-12-18T00:14:19;53.80;;;19.60;;
68910;SDS011;55953;51.650;-0.522;2022-12-18T00:16:46;62.30;;;20.60;;
68910;SDS011;55953;51.650;-0.522;2022-12-18T00:19:15;54.30;;;19.00;;
68910;SDS011;55953;51.650;-0.522;2022-12-18T00:21:43;56.90;;;19.10;;
68910;SDS011;55953;51.650;-0.522;2022-12-18T00:24:11;59.70;;;18.40;;
68910;SDS011;55953;51.650;-0.522;2022-12-18T00:26:39;58.60;;;18.90;;
68910;SDS011;55953;51.650;-0.522;2022-12-18T00:29:12;57.80;;;19.80;;
68910;SDS011;55953;51.650;-0.522;2022-12-18T00:31:44;54.80;;;18.90;;
68910;SDS011;55953;51.650;-0.522;2022-12-18T00:34:13;55.30;;;18.70;;
68910;SDS011;55953;51.650;-0.522;2022-12-18T00:36:41;55.70;;;18.90;;
68910;SDS011;55953;51.650;-0.522;2022-12-18T00:39:10;63.20;;;19.70;;
68910;SDS011;55953;51.650;-0.522;2022-12-18T00:41:38;61.60;;;19.90;;
68910;SDS011;55953;51.650;-0.522;2022-12-18T00:44:25;59.90;;;20.00;;
68910;SDS011;55953;51.650;-0.522;2022-12-18T00:46:53;67.70;;;20.80;;
68910;SDS011;55953;51.650;-0.522;2022-12-18T00:49:21;66.80;;;20.30;;
68910;SDS011;55953;51.650;-0.522;2022-12-18T00:51:49;66.00;;;21.00;;
68910;SDS011;55953;51.650;-0.522;2022-12-18T00:54:17;62.20;;;19.60;;
68910;SDS011;55953;51.650;-0.522;2022-12-18T00:56:45;67.10;;;21.20;;
68910;SDS011;55953;51.650;-0.522;2022-12-18T00:59:17;69.20;;;20.40;;
68910;SDS011;55953;51.650;-0.522;2022-12-18T01:01:46;59.80;;;19.40;;
68910;SDS011;55953;51.650;-0.522;2022-12-18T01:04:14;63.20;;;19.30;;
68910;SDS011;55953;51.650;-0.522;2022-12-18T01:06:45;67.80;;;20.30;;
68910;SDS011;55953;51.650;-0.522;2022-12-18T01:09:13;61.00;;;19.60;;
68910;SDS011;55953;51.650;-0.522;2022-12-18T01:11:41;65.10;;;20.50;;
68910;SDS011;55953;51.650;-0.522;2022-12-18T01:14:10;61.60;;;20.20;;
68910;SDS011;55953;51.650;-0.522;2022-12-18T01:16:38;72.80;;;21.90;;
68910;SDS011;55953;51.650;-0.522;2022-12-18T01:19:06;64.60;;;20.00;;
68910;SDS011;55953;51.650;-0.522;2022-12-18T01:21:35;59.10;;;18.90;;
68910;SDS011;55953;51.650;-0.522;2022-12-18T01:24:04;55.90;;;19.60;;
68910;SDS011;55953;51.650;-0.522;2022-12-18T01:26:33;67.20;;;20.20;;
68910;SDS011;55953;51.650;-0.522;2022-12-18T01:29:01;61.70;;;19.90;;
68910;SDS011;55953;51.650;-0.522;2022-12-18T01:31:31;65.40;;;20.00;;
68910;SDS011;55953;51.650;-0.522;2022-12-18T01:34:04;63.20;;;19.40;;
68910;SDS011;55953;51.650;-0.522;2022-12-18T01:36:37;63.10;;;19.50;;
68910;SDS011;55953;51.650;-0.522;2022-12-18T01:39:10;69.20;;;20.60;;
68910;SDS011;55953;51.650;-0.522;2022-12-18T01:41:42;62.80;;;20.00;;
68910;SDS011;55953;51.650;-0.522;2022-12-18T01:50:40;67.10;;;19.90;;
68910;SDS011;55953;51.650;-0.522;2022-12-18T01:53:13;68.50;;;19.60;;
68910;SDS011;55953;51.650;-0.522;2022-12-18T01:55:53;64.20;;;19.20;;
68910;SDS011;55953;51.650;-0.522;2022-12-18T01:58:30;67.50;;;20.40;;
68910;SDS011;55953;51.650;-0.522;2022-12-18T02:01:08;73.90;;;21.30;;
68910;SDS011;55953;51.650;-0.522;2022-12-18T02:03:36;65.60;;;19.80;;
68910;SDS011;55953;51.650;-0.522;2022-12-18T02:14:38;69.20;;;19.50;;
68910;SDS011;55953;51.650;-0.522;2022-12-18T02:17:20;67.90;;;20.30;;
68910;SDS011;55953;51.650;-0.522;2022-12-18T02:20:14;61.60;;;18.20;;
68910;SDS011;55953;51.650;-0.522;2022-12-18T02:23:03;63.80;;;18.80;;
68910;SDS011;55953;51.650;-0.522;2022-12-18T02:26:16;74.30;;;20.30;;
68910;SDS011;55953;51.650;-0.522;2022-12-18T02:29:00;65.40;;;19.70;;
68910;SDS011;55953;51.650;-0.522;2022-12-18T02:31:45;72.90;;;21.70;;
68910;SDS011;55953;51.650;-0.522;2022-12-18T02:34:22;63.70;;;20.30;;
68910;SDS011;55953;51.650;-0.522;2022-12-18T02:36:55;71.00;;;20.00;;
68910;SDS011;55953;51.650;-0.522;2022-12-18T02:39:27;66.20;;;20.00;;
68910;SDS011;55953;51.650;-0.522;2022-12-18T02:42:01;70.00;;;20.00;;
68910;SDS011;55953;51.650;-0.522;2022-12-18T02:44:41;64.80;;;19.90;;
68910;SDS011;55953;51.650;-0.522;2022-12-18T02:47:13;70.60;;;19.80;;
68910;SDS011;55953;51.650;-0.522;2022-12-18T02:52:38;65.90;;;19.80;;
68910;SDS011;55953;51.650;-0.522;2022-12-18T02:59:08;65.20;;;17.90;;
68910;SDS011;55953;51.650;-0.522;2022-12-18T03:01:58;69.50;;;18.80;;
68910;SDS011;55953;51.650;-0.522;2022-12-18T03:04:43;71.00;;;20.70;;
68910;SDS011;55953;51.650;-0.522;2022-12-18T03:07:26;68.50;;;19.90;;
68910;SDS011;55953;51.650;-0.522;2022-12-18T03:10:07;63.80;;;18.70;;
68910;SDS011;55953;51.650;-0.522;2022-12-18T03:12:44;63.50;;;19.30;;
68910;SDS011;55953;51.650;-0.522;2022-12-18T03:15:44;67.00;;;20.20;;
68910;SDS011;55953;51.650;-0.522;2022-12-18T03:18:22;66.60;;;19.50;;
68910;SDS011;55953;51.650;-0.522;2022-12-18T03:20:56;64.60;;;19.40;;
68910;SDS011;55953;51.650;-0.522;2022-12-18T03:23:33;64.50;;;19.30;;
68910;SDS011;55953;51.650;-0.522;2022-12-18T03:26:07;64.10;;;19.40;;
68910;SDS011;55953;51.650;-0.522;2022-12-18T03:28:43;66.50;;;20.20;;
68910;SDS011;55953;51.650;-0.522;2022-12-18T03:31:21;70.50;;;20.10;;
68910;SDS011;55953;51.650;-0.522;2022-12-18T03:33:56;64.40;;;19.20;;
68910;SDS011;55953;51.650;-0.522;2022-12-18T03:36:33;65.60;;;19.50;;
68910;SDS011;55953;51.650;-0.522;2022-12-18T03:39:02;72.70;;;19.20;;
68910;SDS011;55953;51.650;-0.522;2022-12-18T03:41:38;69.50;;;20.50;;
68910;SDS011;55953;51.650;-0.522;2022-12-18T03:45:03;73.40;;;20.40;;
68910;SDS011;55953;51.650;-0.522;2022-12-18T03:47:59;68.10;;;19.60;;
68910;SDS011;55953;51.650;-0.522;2022-12-18T03:50:56;66.80;;;19.10;;
68910;SDS011;55953;51.650;-0.522;2022-12-18T03:53:46;68.50;;;20.20;;
68910;SDS011;55953;51.650;-0.522;2022-12-18T03:56:22;68.10;;;20.10;;
68910;SDS011;55953;51.650;-0.522;2022-12-18T03:58:55;65.90;;;19.10;;
68910;SDS011;55953;51.650;-0.522;2022-12-18T04:04:00;64.10;;;18.20;;
68910;SDS011;55953;51.650;-0.522;2022-12-18T04:06:35;66.60;;;19.70;;
68910;SDS011;55953;51.650;-0.522;2022-12-18T04:09:04;64.50;;;19.30;;
68910;SDS011;55953;51.650;-0.522;2022-12-18T04:11:35;63.10;;;19.60;;
68910;SDS011;55953;51.650;-0.522;2022-12-18T04:14:03;70.10;;;20.70;;
68910;SDS011;55953;51.650;-0.522;2022-12-18T04:16:34;76.90;;;20.70;;
68910;SDS011;55953;51.650;-0.522;2022-12-18T04:19:03;66.30;;;19.70;;
68910;SDS011;55953;51.650;-0.522;2022-12-18T04:21:36;79.90;;;22.00;;
68910;SDS011;55953;51.650;-0.522;2022-12-18T04:24:04;63.10;;;19.20;;
68910;SDS011;55953;51.650;-0.522;2022-12-18T04:26:32;67.10;;;20.40;;
68910;SDS011;55953;51.650;-0.522;2022-12-18T04:29:16;70.00;;;21.30;;
68910;SDS011;55953;51.650;-0.522;2022-12-18T04:31:44;65.20;;;20.50;;
68910;SDS011;55953;51.650;-0.522;2022-12-18T04:34:11;62.90;;;20.50;;
68910;SDS011;55953;51.650;-0.522;2022-12-18T04:36:48;68.50;;;20.70;;
68910;SDS011;55953;51.650;-0.522;2022-12-18T04:39:16;63.50;;;19.40;;
68910;SDS011;55953;51.650;-0.522;2022-12-18T04:41:44;68.70;;;20.40;;
68910;SDS011;55953;51.650;-0.522;2022-12-18T04:44:12;64.00;;;19.00;;
68910;SDS011;55953;51.650;-0.522;2022-12-18T04:46:41;63.70;;;19.90;;
68910;SDS011;55953;51.650;-0.522;2022-12-18T04:49:09;72.40;;;20.80;;
68910;SDS011;55953;51.650;-0.522;2022-12-18T04:51:38;69.40;;;21.40;;
68910;SDS011;55953;51.650;-0.522;2022-12-18T04:54:06;64.40;;;19.80;;
68910;SDS011;55953;51.650;-0.522;2022-12-18T04:56:34;74.30;;;19.90;;
68910;SDS011;55953;51.650;-0.522;2022-12-18T04:59:01;64.10;;;18.80;;
68910;SDS011;55953;51.650;-0.522;2022-12-18T05:01:29;64.50;;;19.40;;
68910;SDS011;55953;51.650;-0.522;2022-12-18T05:04:02;59.50;;;19.30;;
68910;SDS011;55953;51.650;-0.522;2022-12-18T05:06:30;66.20;;;19.50;;
68910;SDS011;55953;51.650;-0.522;2022-12-18T05:08:58;66.00;;;19.70;;
68910;SDS011;55953;51.650;-0.522;2022-12-18T05:11:25;65.80;;;19.60;;
68910;SDS011;55953;51.650;-0.522;2022-12-18T05:13:53;62.90;;;20.10;;
68910;SDS011;55953;51.650;-0.522;2022-12-18T05:16:21;60.90;;;18.20;;
68910;SDS011;55953;51.650;-0.522;2022-12-18T05:18:49;64.20;;;19.40;;
68910;SDS011;55953;51.650;-0.522;2022-12-18T05:21:16;61.10;;;18.70;;
68910;SDS011;55953;51.650;-0.522;2022-12-18T05:23:44;55.40;;;17.70;;
68910;SDS011;55953;51.650;-0.522;2022-12-18T05:26:15;56.40;;;17.00;;
68910;SDS011;55953;51.650;-0.522;2022-12-18T05:28:45;57.40;;;17.40;;
68910;SDS011;55953;51.650;-0.522;2022-12-18T05:31:13;53.30;;;16.90;;
68910;SDS011;55953;51.650;-0.522;2022-12-18T05:33:41;57.70;;;18.00;;
68910;SDS011;55953;51.650;-0.522;2022-12-18T05:36:10;54.40;;;16.90;;
68910;SDS011;55953;51.650;-0.522;2022-12-18T05:38:39;53.20;;;16.40;;
68910;SDS011;55953;51.650;-0.522;2022-12-18T05:41:08;58.80;;;17.00;;
68910;SDS011;55953;51.650;-0.522;2022-12-18T05:43:38;51.60;;;16.60;;
68910;SDS011;55953;51.650;-0.522;2022-12-18T05:46:12;50.10;;;16.60;;
68910;SDS011;55953;51.650;-0.522;2022-12-18T05:48:41;57.60;;;16.90;;
68910;SDS011;55953;51.650;-0.522;2022-12-18T05:51:14;50.70;;;16.20;;
68910;SDS011;55953;51.650;-0.522;2022-12-18T05:53:43;56.20;;;17.20;;
68910;SDS011;55953;51.650;-0.522;2022-12-18T05:56:14;50.30;;;15.60;;
68910;SDS011;55953;51.650;-0.522;2022-12-18T05:58:45;52.30;;;16.40;;
68910;SDS011;55953;51.650;-0.522;2022-12-18T06:01:17;49.40;;;15.10;;
68910;SDS011;55953;51.650;-0.522;2022-12-18T06:03:46;55.60;;;16.70;;
68910;SDS011;55953;51.650;-0.522;2022-12-18T06:06:20;56.40;;;17.00;;
68910;SDS011;55953;51.650;-0.522;2022-12-18T06:08:52;49.70;;;15.60;;
68910;SDS011;55953;51.650;-0.522;2022-12-18T06:11:22;48.30;;;15.90;;
68910;SDS011;55953;51.650;-0.522;2022-12-18T06:13:54;53.60;;;16.40;;
68910;SDS011;55953;51.650;-0.522;2022-12-18T06:16:29;50.60;;;16.20;;
68910;SDS011;55953;51.650;-0.522;2022-12-18T06:19:03;51.90;;;16.20;;
68910;SDS011;55953;51.650;-0.522;2022-12-18T06:21:32;53.60;;;15.90;;
68910;SDS011;55953;51.650;-0.522;2022-12-18T06:24:01;44.10;;;14.50;;
68910;SDS011;55953;51.650;-0.522;2022-12-18T06:26:29;50.10;;;15.80;;
68910;SDS011;55953;51.650;-0.522;2022-12-18T06:28:57;45.50;;;14.90;;
68910;SDS011;55953;51.650;-0.522;2022-12-18T06:31:25;46.30;;;15.40;;
68910;SDS011;55953;51.650;-0.522;2022-12-18T06:33:53;42.90;;;15.40;;
68910;SDS011;55953;51.650;-0.522;2022-12-18T06:36:21;49.00;;;15.50;;
68910;SDS011;55953;51.650;-0.522;2022-12-18T06:38:49;49.80;;;15.70;;
68910;SDS011;55953;51.650;-0.522;2022-12-18T06:41:19;54.10;;;14.80;;
68910;SDS011;55953;51.650;-0.522;2022-12-18T06:43:48;40.10;;;14.20;;
68910;SDS011;55953;51.650;-0.522;2022-12-18T06:46:16;41.30;;;14.30;;
68910;SDS011;55953;51.650;-0.522;2022-12-18T06:48:47;41.90;;;14.60;;
68910;SDS011;55953;51.650;-0.522;2022-12-18T06:51:21;43.40;;;15.30;;
68910;SDS011;55953;51.650;-0.522;2022-12-18T06:53:50;50.30;;;15.10;;
68910;SDS011;55953;51.650;-0.522;2022-12-18T06:56:18;49.60;;;15.60;;
68910;SDS011;55953;51.650;-0.522;2022-12-18T06:58:45;41.60;;;14.30;;
68910;SDS011;55953;51.650;-0.522;2022-12-18T07:01:13;47.90;;;14.50;;
68910;SDS011;55953;51.650;-0.522;2022-12-18T07:03:41;45.80;;;14.40;;
68910;SDS011;55953;51.650;-0.522;2022-12-18T07:06:16;50.20;;;15.00;;
68910;SDS011;55953;51.650;-0.522;2022-12-18T07:08:46;47.50;;;15.00;;
68910;SDS011;55953;51.650;-0.522;2022-12-18T07:11:15;45.30;;;15.50;;
68910;SDS011;55953;51.650;-0.522;2022-12-18T07:13:44;47.00;;;15.50;;
68910;SDS011;55953;51.650;-0.522;2022-12-18T07:16:15;48.70;;;14.30;;
68910;SDS011;55953;51.650;-0.522;2022-12-18T07:18:52;43.30;;;15.30;;
68910;SDS011;55953;51.650;-0.522;2022-12-18T07:21:23;51.10;;;16.10;;
68910;SDS011;55953;51.650;-0.522;2022-12-18T07:23:52;48.10;;;15.90;;
68910;SDS011;55953;51.650;-0.522;2022-12-18T07:26:21;45.40;;;15.50;;
68910;SDS011;55953;51.650;-0.522;2022-12-18T07:28:50;44.50;;;15.60;;
68910;SDS011;55953;51.650;-0.522;2022-12-18T07:31:21;44.90;;;14.70;;
68910;SDS011;55953;51.650;-0.522;2022-12-18T07:33:50;45.70;;;14.90;;
68910;SDS011;55953;51.650;-0.522;2022-12-18T07:36:19;46.00;;;15.60;;
68910;SDS011;55953;51.650;-0.522;2022-12-18T07:38:48;42.20;;;14.20;;
68910;SDS011;55953;51.650;-0.522;2022-12-18T07:41:17;49.70;;;16.20;;
68910;SDS011;55953;51.650;-0.522;2022-12-18T07:43:46;43.90;;;15.20;;
68910;SDS011;55953;51.650;-0.522;2022-12-18T07:46:15;42.00;;;15.50;;
68910;SDS011;55953;51.650;-0.522;2022-12-18T07:48:44;47.30;;;16.40;;
68910;SDS011;55953;51.650;-0.522;2022-12-18T07:51:17;46.90;;;15.90;;
68910;SDS011;55953;51.650;-0.522;2022-12-18T07:53:46;47.40;;;17.10;;
68910;SDS011;55953;51.650;-0.522;2022-12-18T07:56:19;48.50;;;15.10;;
68910;SDS011;55953;51.650;-0.522;2022-12-18T07:58:58;44.70;;;16.30;;
68910;SDS011;55953;51.650;-0.522;2022-12-18T08:01:26;44.80;;;16.50;;
68910;SDS011;55953;51.650;-0.522;2022-12-18T08:03:55;49.50;;;15.60;;
68910;SDS011;55953;51.650;-0.522;2022-12-18T08:06:24;47.90;;;17.10;;
68910;SDS011;55953;51.650;-0.522;2022-12-18T08:08:54;51.90;;;16.40;;
68910;SDS011;55953;51.650;-0.522;2022-12-18T08:11:24;49.40;;;17.10;;
68910;SDS011;55953;51.650;-0.522;2022-12-18T08:13:54;43.00;;;14.40;;
68910;SDS011;55953;51.650;-0.522;2022-12-18T08:16:22;43.20;;;15.30;;
68910;SDS011;55953;51.650;-0.522;2022-12-18T08:18:52;39.50;;;14.60;;
68910;SDS011;55953;51.650;-0.522;2022-12-18T08:21:23;43.30;;;15.30;;
68910;SDS011;55953;51.650;-0.522;2022-12-18T08:23:55;45.80;;;16.00;;
68910;SDS011;55953;51.650;-0.522;2022-12-18T08:26:28;43.90;;;16.80;;
68910;SDS011;55953;51.650;-0.522;2022-12-18T08:28:58;46.50;;;15.90;;
68910;SDS011;55953;51.650;-0.522;2022-12-18T08:31:28;46.50;;;16.40;;
68910;SDS011;55953;51.650;-0.522;2022-12-18T08:33:58;38.20;;;14.50;;
68910;SDS011;55953;51.650;-0.522;2022-12-18T08:36:26;45.70;;;16.10;;
68910;SDS011;55953;51.650;-0.522;2022-12-18T08:38:54;43.50;;;14.80;;
68910;SDS011;55953;51.650;-0.522;2022-12-18T08:41:22;45.70;;;15.50;;
68910;SDS011;55953;51.650;-0.522;2022-12-18T08:43:50;44.90;;;15.70;;
68910;SDS011;55953;51.650;-0.522;2022-12-18T08:46:39;47.30;;;15.40;;
68910;SDS011;55953;51.650;-0.522;2022-12-18T08:49:09;43.40;;;16.30;;
68910;SDS011;55953;51.650;-0.522;2022-12-18T08:51:39;42.90;;;16.20;;
68910;SDS011;55953;51.650;-0.522;2022-12-18T08:54:07;44.50;;;15.60;;
68910;SDS011;55953;51.650;-0.522;2022-12-18T08:56:38;44.80;;;15.40;;
68910;SDS011;55953;51.650;-0.522;2022-12-18T08:59:05;49.20;;;17.30;;
68910;SDS011;55953;51.650;-0.522;2022-12-18T09:01:33;47.60;;;16.80;;
68910;SDS011;55953;51.650;-0.522;2022-12-18T09:04:02;42.50;;;14.70;;
68910;SDS011;55953;51.650;-0.522;2022-12-18T09:06:31;43.30;;;15.40;;
68910;SDS011;55953;51.650;-0.522;2022-12-18T09:08:58;44.10;;;15.10;;
68910;SDS011;55953;51.650;-0.522;2022-12-18T09:11:27;44.00;;;15.00;;
68910;SDS011;55953;51.650;-0.522;2022-12-18T09:13:57;45.60;;;16.10;;
68910;SDS011;55953;51.650;-0.522;2022-12-18T09:16:27;42.30;;;15.30;;
68910;SDS011;55953;51.650;-0.522;2022-12-18T09:18:59;44.20;;;15.20;;
68910;SDS011;55953;51.650;-0.522;2022-12-18T09:21:30;44.10;;;15.20;;
68910;SDS011;55953;51.650;-0.522;2022-12-18T09:24:04;45.70;;;15.90;;
68910;SDS011;55953;51.650;-0.522;2022-12-18T09:26:35;49.20;;;15.70;;
68910;SDS011;55953;51.650;-0.522;2022-12-18T09:29:04;45.00;;;15.20;;
68910;SDS011;55953;51.650;-0.522;2022-12-18T09:31:31;46.30;;;16.00;;
68910;SDS011;55953;51.650;-0.522;2022-12-18T09:33:59;44.10;;;15.60;;
68910;SDS011;55953;51.650;-0.522;2022-12-18T09:36:27;44.30;;;16.50;;
68910;SDS011;55953;51.650;-0.522;2022-12-18T09:38:55;39.80;;;15.10;;
68910;SDS011;55953;51.650;-0.522;2022-12-18T09:44:29;45.90;;;16.20;;
68910;SDS011;55953;51.650;-0.522;2022-12-18T09:47:16;45.50;;;15.40;;
68910;SDS011;55953;51.650;-0.522;2022-12-18T09:49:50;43.10;;;15.60;;
68910;SDS011;55953;51.650;-0.522;2022-12-18T09:52:37;45.90;;;17.20;;
68910;SDS011;55953;51.650;-0.522;2022-12-18T09:55:22;43.40;;;15.40;;
68910;SDS011;55953;51.650;-0.522;2022-12-18T09:58:14;39.00;;;14.90;;
68910;SDS011;55953;51.650;-0.522;2022-12-18T10:00:46;45.10;;;16.00;;
68910;SDS011;55953;51.650;-0.522;2022-12-18T10:03:15;40.90;;;15.70;;
68910;SDS011;55953;51.650;-0.522;2022-12-18T10:05:53;44.50;;;16.80;;
68910;SDS011;55953;51.650;-0.522;2022-12-18T10:08:45;38.80;;;15.20;;
68910;SDS011;55953;51.650;-0.522;2022-12-18T10:11:34;44.30;;;16.00;;
68910;SDS011;55953;51.650;-0.522;2022-12-18T10:14:36;41.30;;;15.50;;
68910;SDS011;55953;51.650;-0.522;2022-12-18T10:20:27;42.50;;;16.30;;
68910;SDS011;55953;51.650;-0.522;2022-12-18T10:23:20;41.50;;;15.90;;
68910;SDS011;55953;51.650;-0.522;2022-12-18T10:25:54;42.60;;;16.30;;
68910;SDS011;55953;51.650;-0.522;2022-12-18T10:28:25;45.00;;;16.20;;
68910;SDS011;55953;51.650;-0.522;2022-12-18T10:30:54;42.00;;;15.60;;
68910;SDS011;55953;51.650;-0.522;2022-12-18T10:33:24;44.00;;;16.60;;
68910;SDS011;55953;51.650;-0.522;2022-12-18T10:35:56;40.00;;;15.90;;
68910;SDS011;55953;51.650;-0.522;2022-12-18T10:38:27;42.50;;;15.90;;
68910;SDS011;55953;51.650;-0.522;2022-12-18T10:40:59;42.80;;;15.00;;
68910;SDS011;55953;51.650;-0.522;2022-12-18T10:43:39;42.80;;;16.10;;
68910;SDS011;55953;51.650;-0.522;2022-12-18T10:46:14;41.60;;;16.80;;
68910;SDS011;55953;51.650;-0.522;2022-12-18T10:54:15;40.70;;;15.70;;
68910;SDS011;55953;51.650;-0.522;2022-12-18T10:56:47;47.20;;;16.50;;
68910;SDS011;55953;51.650;-0.522;2022-12-18T10:59:17;43.60;;;15.70;;
68910;SDS011;55953;51.650;-0.522;2022-12-18T11:01:51;42.80;;;16.20;;
68910;SDS011;55953;51.650;-0.522;2022-12-18T11:04:29;41.50;;;15.40;;
68910;SDS011;55953;51.650;-0.522;2022-12-18T11:07:04;38.30;;;14.50;;
68910;SDS011;55953;51.650;-0.522;2022-12-18T11:09:37;40.70;;;14.80;;
68910;SDS011;55953;51.650;-0.522;2022-12-18T11:14:54;49.30;;;17.10;;
68910;SDS011;55953;51.650;-0.522;2022-12-18T11:17:31;43.40;;;16.90;;
68910;SDS011;55953;51.650;-0.522;2022-12-18T11:20:04;41.20;;;16.90;;
68910;SDS011;55953;51.650;-0.522;2022-12-18T11:22:37;39.60;;;14.80;;
68910;SDS011;55953;51.650;-0.522;2022-12-18T11:25:27;38.50;;;15.40;;
68910;SDS011;55953;51.650;-0.522;2022-12-18T11:28:06;43.40;;;15.70;;
68910;SDS011;55953;51.650;-0.522;2022-12-18T11:31:16;40.90;;;15.60;;
68910;SDS011;55953;51.650;-0.522;2022-12-18T11:36:58;40.20;;;15.30;;
68910;SDS011;55953;51.650;-0.522;2022-12-18T11:39:40;38.20;;;15.30;;
68910;SDS011;55953;51.650;-0.522;2022-12-18T11:50:31;40.60;;;15.90;;
68910;SDS011;55953;51.650;-0.522;2022-12-18T11:53:12;43.50;;;16.90;;
68910;SDS011;55953;51.650;-0.522;2022-12-18T11:58:52;42.00;;;17.50;;
68910;SDS011;55953;51.650;-0.522;2022-12-18T12:01:36;42.50;;;16.40;;
68910;SDS011;55953;51.650;-0.522;2022-12-18T12:04:50;47.60;;;17.30;;
68910;SDS011;55953;51.650;-0.522;2022-12-18T12:07:52;46.50;;;16.90;;
68910;SDS011;55953;51.650;-0.522;2022-12-18T12:10:37;42.40;;;16.70;;
68910;SDS011;55953;51.650;-0.522;2022-12-18T12:19:07;47.80;;;18.20;;
68910;SDS011;55953;51.650;-0.522;2022-12-18T12:22:08;34.10;;;16.30;;
68910;SDS011;55953;51.650;-0.522;2022-12-18T12:27:43;41.40;;;16.60;;
68910;SDS011;55953;51.650;-0.522;2022-12-18T12:36:06;45.30;;;17.60;;
68910;SDS011;55953;51.650;-0.522;2022-12-18T12:38:46;44.80;;;18.80;;
68910;SDS011;55953;51.650;-0.522;2022-12-18T12:41:31;39.60;;;17.30;;
68910;SDS011;55953;51.650;-0.522;2022-12-18T12:44:25;46.90;;;18.50;;
68910;SDS011;55953;51.650;-0.522;2022-12-18T12:47:00;45.70;;;18.20;;
68910;SDS011;55953;51.650;-0.522;2022-12-18T12:49:32;48.60;;;19.20;;
68910;SDS011;55953;51.650;-0.522;2022-12-18T12:52:12;46.70;;;19.40;;
68910;SDS011;55953;51.650;-0.522;2022-12-18T12:54:45;45.70;;;19.00;;
68910;SDS011;55953;51.650;-0.522;2022-12-18T12:57:26;45.10;;;18.20;;
68910;SDS011;55953;51.650;-0.522;2022-12-18T13:00:18;44.40;;;18.40;;
68910;SDS011;55953;51.650;-0.522;2022-12-18T13:05:46;46.50;;;19.80;;
68910;SDS011;55953;51.650;-0.522;2022-12-18T13:08:25;47.50;;;19.60;;
68910;SDS011;55953;51.650;-0.522;2022-12-18T13:11:30;49.40;;;20.90;;
68910;SDS011;55953;51.650;-0.522;2022-12-18T13:14:42;43.10;;;19.70;;
68910;SDS011;55953;51.650;-0.522;2022-12-18T13:20:01;51.50;;;20.80;;
68910;SDS011;55953;51.650;-0.522;2022-12-18T13:22:40;50.80;;;20.10;;
68910;SDS011;55953;51.650;-0.522;2022-12-18T13:25:34;46.30;;;19.10;;
68910;SDS011;55953;51.650;-0.522;2022-12-18T13:28:13;51.60;;;19.80;;
68910;SDS011;55953;51.650;-0.522;2022-12-18T13:30:54;48.50;;;19.20;;
68910;SDS011;55953;51.650;-0.522;2022-12-18T13:38:44;39.60;;;18.10;;
68910;SDS011;55953;51.650;-0.522;2022-12-18T13:43:48;43.00;;;18.60;;
68910;SDS011;55953;51.650;-0.522;2022-12-18T13:46:50;40.00;;;17.80;;
68910;SDS011;55953;51.650;-0.522;2022-12-18T13:54:53;46.30;;;18.50;;
68910;SDS011;55953;51.650;-0.522;2022-12-18T13:57:35;43.30;;;18.60;;
68910;SDS011;55953;51.650;-0.522;2022-12-18T14:00:26;40.30;;;17.60;;
68910;SDS011;55953;51.650;-0.522;2022-12-18T14:02:57;41.80;;;17.40;;
68910;SDS011;55953;51.650;-0.522;2022-12-18T14:05:29;40.90;;;17.70;;
68910;SDS011;55953;51.650;-0.522;2022-12-18T14:08:02;41.00;;;16.80;;
68910;SDS011;55953;51.650;-0.522;2022-12-18T14:10:43;37.00;;;15.60;;
68910;SDS011;55953;51.650;-0.522;2022-12-18T14:13:30;34.20;;;15.70;;
68910;SDS011;55953;51.650;-0.522;2022-12-18T14:16:03;38.40;;;15.80;;
68910;SDS011;55953;51.650;-0.522;2022-12-18T14:18:54;34.60;;;14.50;;
68910;SDS011;55953;51.650;-0.522;2022-12-18T14:21:46;33.70;;;14.50;;
68910;SDS011;55953;51.650;-0.522;2022-12-18T14:24:21;31.40;;;13.80;;
68910;SDS011;55953;51.650;-0.522;2022-12-18T14:26:50;29.00;;;12.50;;
68910;SDS011;55953;51.650;-0.522;2022-12-18T14:29:19;35.90;;;14.40;;
68910;SDS011;55953;51.650;-0.522;2022-12-18T14:32:13;29.10;;;13.60;;
68910;SDS011;55953;51.650;-0.522;2022-12-18T14:34:51;31.00;;;13.10;;
68910;SDS011;55953;51.650;-0.522;2022-12-18T14:37:23;28.70;;;12.30;;
68910;SDS011;55953;51.650;-0.522;2022-12-18T14:42:26;29.30;;;12.20;;
68910;SDS011;55953;51.650;-0.522;2022-12-18T14:45:36;28.60;;;11.80;;
68910;SDS011;55953;51.650;-0.522;2022-12-18T14:48:33;29.00;;;12.90;;
68910;SDS011;55953;51.650;-0.522;2022-12-18T14:53:40;22.70;;;10.30;;
68910;SDS011;55953;51.650;-0.522;2022-12-18T14:56:22;26.00;;;11.40;;
68910;SDS011;55953;51.650;-0.522;2022-12-18T14:59:05;28.70;;;12.30;;
68910;SDS011;55953;51.650;-0.522;2022-12-18T15:04:43;26.00;;;11.20;;
68910;SDS011;55953;51.650;-0.522;2022-12-18T15:07:20;26.50;;;11.40;;
68910;SDS011;55953;51.650;-0.522;2022-12-18T15:12:40;23.20;;;10.50;;
68910;SDS011;55953;51.650;-0.522;2022-12-18T15:20:44;25.20;;;10.90;;
68910;SDS011;55953;51.650;-0.522;2022-12-18T15:28:47;23.20;;;10.20;;
68910;SDS011;55953;51.650;-0.522;2022-12-18T15:36:26;25.00;;;11.00;;
68910;SDS011;55953;51.650;-0.522;2022-12-18T15:38:57;21.80;;;11.00;;
68910;SDS011;55953;51.650;-0.522;2022-12-18T15:41:35;20.40;;;10.10;;
68910;SDS011;55953;51.650;-0.522;2022-12-18T15:44:21;21.20;;;10.30;;
68910;SDS011;55953;51.650;-0.522;2022-12-18T15:46:51;26.10;;;10.20;;
68910;SDS011;55953;51.650;-0.522;2022-12-18T15:49:18;22.00;;;10.50;;
68910;SDS011;55953;51.650;-0.522;2022-12-18T15:51:50;19.70;;;9.50;;
68910;SDS011;55953;51.650;-0.522;2022-12-18T15:54:21;19.50;;;9.60;;
68910;SDS011;55953;51.650;-0.522;2022-12-18T15:57:10;23.10;;;10.50;;
68910;SDS011;55953;51.650;-0.522;2022-12-18T15:59:51;19.50;;;9.90;;
68910;SDS011;55953;51.650;-0.522;2022-12-18T16:02:21;24.10;;;10.90;;
68910;SDS011;55953;51.650;-0.522;2022-12-18T16:04:52;17.90;;;8.90;;
68910;SDS011;55953;51.650;-0.522;2022-12-18T16:07:20;19.90;;;9.70;;
68910;SDS011;55953;51.650;-0.522;2022-12-18T16:09:53;19.60;;;9.60;;
68910;SDS011;55953;51.650;-0.522;2022-12-18T16:12:24;20.00;;;10.60;;
68910;SDS011;55953;51.650;-0.522;2022-12-18T16:14:52;20.60;;;10.20;;
68910;SDS011;55953;51.650;-0.522;2022-12-18T16:17:20;21.50;;;11.00;;
68910;SDS011;55953;51.650;-0.522;2022-12-18T16:19:48;22.90;;;10.50;;
68910;SDS011;55953;51.650;-0.522;2022-12-18T16:22:22;20.60;;;10.10;;
68910;SDS011;55953;51.650;-0.522;2022-12-18T16:24:55;19.20;;;10.50;;
68910;SDS011;55953;51.650;-0.522;2022-12-18T16:27:24;17.20;;;9.10;;
68910;SDS011;55953;51.650;-0.522;2022-12-18T16:29:52;18.30;;;9.00;;
68910;SDS011;55953;51.650;-0.522;2022-12-18T16:32:21;21.20;;;9.60;;
68910;SDS011;55953;51.650;-0.522;2022-12-18T16:34:51;21.10;;;10.20;;
68910;SDS011;55953;51.650;-0.522;2022-12-18T16:37:19;21.80;;;10.20;;
68910;SDS011;55953;51.650;-0.522;2022-12-18T16:39:47;19.20;;;9.40;;
68910;SDS011;55953;51.650;-0.522;2022-12-18T16:42:18;18.00;;;8.70;;
68910;SDS011;55953;51.650;-0.522;2022-12-18T16:44:48;14.90;;;8.70;;